Time;durP1;ratioP1;P1;durP2;ratioP2;P2;SDS_P1;SDS_P2;PMS_P1;PMS_P2;Temp;Humidity;BMP_temperature;BMP_pressure;BME280_temperature;BME280_humidity;BME280_pressure;Samples;Min_cycle;Max_cycle;Signal;HPM_P1;HPM_P2
2023/11/24 00:00:49;;;;;;;15.98;4.65;;;;;;;20.40;70.34;101608.06;5081177;28;20103;-44
2023/11/24 00:03:14;;;;;;;13.32;4.18;;;;;;;20.39;70.15;101611.94;5085845;28;20024;-43
2023/11/24 00:05:39;;;;;;;17.10;4.65;;;;;;;20.36;70.16;101589.34;5085426;28;20082;-44
2023/11/24 00:08:05;;;;;;;12.07;3.78;;;;;;;20.33;69.87;101598.16;5088829;28;20031;-44
2023/11/24 00:10:30;;;;;;;11.02;3.90;;;;;;;20.31;69.86;101591.28;5091219;28;20030;-44
2023/11/24 00:12:56;;;;;;;17.27;3.97;;;;;;;20.29;69.75;101593.47;5085105;28;20077;-37
2023/11/24 00:15:22;;;;;;;14.68;4.07;;;;;;;20.27;69.73;101592.91;5081264;28;20028;-36
2023/11/24 00:17:48;;;;;;;14.55;3.58;;;;;;;20.26;69.92;101588.53;5079088;28;20038;-37
2023/11/24 00:20:16;;;;;;;14.80;4.00;;;;;;;20.22;70.11;101591.00;5082996;28;20114;-37
2023/11/24 00:22:42;;;;;;;11.77;3.95;;;;;;;20.19;70.03;101586.03;5078985;28;20036;-37
2023/11/24 00:25:09;;;;;;;12.90;3.90;;;;;;;20.17;70.22;101597.31;5062238;28;20549;-37
2023/11/24 00:27:35;;;;;;;10.30;3.42;;;;;;;20.15;69.90;101584.94;5086232;28;20106;-36
2023/11/24 00:30:01;;;;;;;13.18;3.92;;;;;;;20.12;69.94;101588.22;5084005;28;20568;-37
2023/11/24 00:32:27;;;;;;;11.75;3.63;;;;;;;20.11;69.91;101581.91;5090085;28;20191;-37
2023/11/24 00:34:52;;;;;;;11.50;3.45;;;;;;;20.10;69.97;101573.91;5082279;28;20099;-37
2023/11/24 00:37:17;;;;;;;12.82;3.63;;;;;;;20.08;69.62;101571.44;5087178;28;20082;-37
2023/11/24 00:39:44;;;;;;;11.65;3.88;;;;;;;20.07;70.18;101567.03;5078892;28;20058;-36
2023/11/24 00:42:09;;;;;;;13.45;3.88;;;;;;;20.05;69.79;101561.00;5084763;28;20020;-36
2023/11/24 00:44:35;;;;;;;12.65;3.30;;;;;;;20.04;69.85;101565.66;5083328;28;20443;-36
2023/11/24 00:47:01;;;;;;;12.20;3.25;;;;;;;20.03;69.91;101564.00;5088192;28;20026;-37
2023/11/24 00:49:26;;;;;;;9.10;3.10;;;;;;;20.00;70.03;101572.81;5086195;28;20059;-37
2023/11/24 00:51:51;;;;;;;10.00;3.58;;;;;;;19.99;69.76;101567.59;5084352;28;20484;-37
2023/11/24 00:54:17;;;;;;;10.93;3.53;;;;;;;19.99;70.10;101570.34;5083666;28;20036;-36
2023/11/24 00:56:42;;;;;;;10.52;3.00;;;;;;;19.96;70.04;101582.72;5084090;28;20461;-36
2023/11/24 00:59:07;;;;;;;10.80;2.92;;;;;;;19.97;70.02;101597.28;5083648;28;20070;-37
2023/11/24 01:01:33;;;;;;;12.57;3.50;;;;;;;19.95;70.10;101607.72;5084836;28;20417;-37
2023/11/24 01:03:59;;;;;;;10.35;3.38;;;;;;;19.93;70.02;101599.75;5090325;28;20054;-37
2023/11/24 01:06:25;;;;;;;8.98;3.05;;;;;;;19.92;70.04;101584.34;5080978;28;20084;-37
2023/11/24 01:08:50;;;;;;;8.52;2.80;;;;;;;19.91;69.77;101563.44;5082918;28;20059;-37
2023/11/24 01:11:15;;;;;;;9.82;2.83;;;;;;;19.91;69.68;101557.13;5082804;28;20070;-37
2023/11/24 01:13:41;;;;;;;9.57;2.95;;;;;;;19.89;69.52;101551.88;5082780;28;20617;-37
2023/11/24 01:16:06;;;;;;;10.25;2.80;;;;;;;19.89;69.32;101554.63;5082422;28;20008;-37
2023/11/24 01:18:36;;;;;;;11.95;2.90;;;;;;;19.88;69.64;101541.97;5081299;28;20043;-36
2023/11/24 01:21:01;;;;;;;11.27;2.97;;;;;;;19.87;69.50;101545.81;5087685;28;20055;-37
2023/11/24 01:23:27;;;;;;;9.65;3.03;;;;;;;19.86;69.81;101556.00;5078448;28;20124;-37
2023/11/24 01:25:54;;;;;;;7.60;2.97;;;;;;;19.86;69.75;101561.53;5078734;28;20074;-37
2023/11/24 01:28:20;;;;;;;9.18;2.65;;;;;;;19.85;69.67;101603.03;5087573;28;20209;-37
2023/11/24 01:30:45;;;;;;;8.70;2.75;;;;;;;19.84;69.61;101601.38;5089147;28;20228;-37
2023/11/24 01:33:11;;;;;;;6.30;2.97;;;;;;;19.82;69.77;101595.31;5120630;27;20302;-37
2023/11/24 01:35:36;;;;;;;7.75;2.42;;;;;;;19.81;69.59;101621.97;5075359;28;20020;-38
2023/11/24 01:38:03;;;;;;;8.45;2.70;;;;;;;19.80;69.51;101589.22;5086529;28;20445;-38
2023/11/24 01:40:28;;;;;;;8.18;2.70;;;;;;;19.80;69.76;101583.72;5084935;28;20498;-38
2023/11/24 01:42:53;;;;;;;8.90;2.30;;;;;;;19.78;69.44;101584.00;5088239;28;20051;-37
2023/11/24 01:45:19;;;;;;;10.98;2.67;;;;;;;19.82;70.08;101579.63;5088839;28;20500;-36
2023/11/24 01:47:46;;;;;;;8.13;2.55;;;;;;;19.91;70.41;101555.16;5084282;28;20119;-36
2023/11/24 01:50:12;;;;;;;7.53;2.42;;;;;;;20.02;70.30;101545.84;5090053;28;20066;-36
2023/11/24 01:52:39;;;;;;;10.38;2.80;;;;;;;20.15;69.45;101540.91;5088793;28;20512;-36
2023/11/24 01:55:05;;;;;;;11.80;2.40;;;;;;;20.25;69.79;101546.41;5086783;28;20115;-37
2023/11/24 01:57:31;;;;;;;8.70;2.80;;;;;;;20.32;69.20;101543.41;5080502;28;20104;-36
2023/11/24 01:59:58;;;;;;;8.25;2.30;;;;;;;20.40;69.49;101537.31;5084102;28;20533;-37
2023/11/24 02:02:24;;;;;;;8.38;2.45;;;;;;;20.46;69.33;101541.72;5118101;27;20024;-36
2023/11/24 02:04:50;;;;;;;7.88;2.50;;;;;;;20.52;69.30;101537.84;5088628;28;20078;-37
2023/11/24 02:07:16;;;;;;;7.47;2.45;;;;;;;20.58;69.14;101535.91;5094648;28;20110;-37
2023/11/24 02:09:41;;;;;;;6.95;2.08;;;;;;;20.63;68.60;101535.91;5084342;28;20442;-37
2023/11/24 02:12:07;;;;;;;8.65;2.50;;;;;;;20.68;68.65;101535.09;5085867;28;20389;-37
2023/11/24 02:14:32;;;;;;;15.35;2.63;;;;;;;20.68;68.48;101535.09;5082659;28;20024;-36
2023/11/24 02:16:59;;;;;;;12.18;2.38;;;;;;;20.64;68.37;101531.25;5080386;28;20037;-38
2023/11/24 02:19:27;;;;;;;9.27;2.85;;;;;;;20.59;68.36;101545.00;5085038;28;20042;-36
2023/11/24 02:21:53;;;;;;;13.13;2.25;;;;;;;20.52;68.31;101537.03;5087089;28;20046;-36
2023/11/24 02:24:19;;;;;;;13.18;2.33;;;;;;;20.47;68.17;101528.78;5076698;28;20236;-36
2023/11/24 02:26:45;;;;;;;8.30;2.50;;;;;;;20.43;68.32;101517.50;5087695;28;20074;-36
2023/11/24 02:29:10;;;;;;;8.20;2.28;;;;;;;20.37;68.27;101515.84;5084741;28;20028;-36
2023/11/24 02:31:35;;;;;;;7.47;2.30;;;;;;;20.33;68.18;101510.06;5086418;28;20024;-36
2023/11/24 02:34:01;;;;;;;5.47;1.90;;;;;;;20.27;68.00;101504.84;5087647;28;20054;-36
2023/11/24 02:36:30;;;;;;;7.50;2.10;;;;;;;20.25;68.22;101512.56;5076851;28;20118;-36
2023/11/24 02:38:58;;;;;;;7.70;1.80;;;;;;;20.20;68.36;101505.13;5072683;28;20250;-36
2023/11/24 02:41:25;;;;;;;5.32;1.77;;;;;;;20.16;68.49;101493.03;5086160;28;20123;-36
2023/11/24 02:43:50;;;;;;;6.22;2.00;;;;;;;20.13;68.54;101496.31;5087678;28;20080;-36
2023/11/24 02:46:16;;;;;;;5.97;2.45;;;;;;;20.09;68.47;101482.28;5088001;28;20468;-36
2023/11/24 02:48:42;;;;;;;4.75;2.00;;;;;;;20.06;68.21;101488.34;5094852;28;20051;-36
2023/11/24 02:51:08;;;;;;;6.28;2.17;;;;;;;20.04;68.57;101480.34;5085422;28;20032;-36
2023/11/24 02:53:37;;;;;;;5.80;2.00;;;;;;;20.00;68.52;101479.25;5085931;28;20089;-36
2023/11/24 02:56:03;;;;;;;7.05;2.00;;;;;;;19.97;68.31;101467.97;5086017;28;20094;-36
2023/11/24 02:58:30;;;;;;;5.15;1.80;;;;;;;19.96;68.51;101478.19;5081723;28;20452;-36
2023/11/24 03:00:59;;;;;;;6.68;2.03;;;;;;;19.94;68.21;101471.25;5084160;28;20345;-35
2023/11/24 03:03:26;;;;;;;4.93;1.73;;;;;;;19.91;68.53;101467.16;5096490;28;20119;-36
2023/11/24 03:05:51;;;;;;;5.55;2.13;;;;;;;19.89;68.62;101469.38;5076416;28;20024;-36
2023/11/24 03:08:19;;;;;;;6.32;1.80;;;;;;;19.87;68.68;101477.88;5086664;28;20392;-36
2023/11/24 03:10:44;;;;;;;5.60;2.00;;;;;;;19.85;68.48;101462.75;5085236;28;20578;-36
2023/11/24 03:13:10;;;;;;;6.35;1.80;;;;;;;19.82;68.73;101466.84;5086239;28;20057;-37
2023/11/24 03:15:35;;;;;;;7.07;2.00;;;;;;;19.81;68.55;101465.19;5102302;27;20027;-36
2023/11/24 03:18:01;;;;;;;5.75;1.95;;;;;;;19.79;68.53;101459.16;5079619;28;20032;-36
2023/11/24 03:20:26;;;;;;;5.13;2.08;;;;;;;19.77;68.66;101457.78;5087027;28;20064;-36
2023/11/24 03:22:52;;;;;;;7.05;2.10;;;;;;;19.76;68.69;101448.69;5076302;28;20111;-36
2023/11/24 03:25:17;;;;;;;5.63;1.88;;;;;;;19.73;68.48;101447.31;5081884;28;20027;-36
2023/11/24 03:27:43;;;;;;;6.25;2.15;;;;;;;19.74;68.18;101445.38;5078692;28;20032;-36
2023/11/24 03:30:09;;;;;;;5.75;1.90;;;;;;;19.73;68.38;101443.75;5084058;28;20112;-36
2023/11/24 03:32:34;;;;;;;5.82;2.00;;;;;;;19.71;68.22;101435.75;5084122;28;20542;-36
2023/11/24 03:34:59;;;;;;;5.80;1.90;;;;;;;19.71;68.06;101432.19;5093438;28;20152;-36
2023/11/24 03:37:25;;;;;;;4.70;1.80;;;;;;;19.70;68.03;101427.78;5080752;28;20105;-37
2023/11/24 03:39:51;;;;;;;5.43;1.70;;;;;;;19.67;68.04;101420.09;5083257;28;20520;-36
2023/11/24 03:42:16;;;;;;;7.30;1.98;;;;;;;19.65;68.34;101423.09;5090290;28;20025;-37
2023/11/24 03:44:42;;;;;;;8.30;1.65;;;;;;;19.64;68.16;101437.94;5090501;28;20017;-37
2023/11/24 03:47:07;;;;;;;4.50;1.70;;;;;;;19.63;67.97;101427.22;5083498;28;20046;-37
2023/11/24 03:49:32;;;;;;;4.78;1.67;;;;;;;19.60;67.97;101428.59;5079347;28;20038;-37
2023/11/24 03:51:59;;;;;;;4.57;1.70;;;;;;;19.61;68.11;101418.41;5084893;28;20020;-36
2023/11/24 03:54:25;;;;;;;5.43;1.70;;;;;;;19.60;68.03;101427.78;5085596;28;20027;-36
2023/11/24 03:56:50;;;;;;;6.28;2.03;;;;;;;19.59;68.02;101415.94;5082530;28;20493;-35
2023/11/24 03:59:15;;;;;;;6.93;2.25;;;;;;;19.59;68.03;101417.88;5080284;28;20484;-37
2023/11/24 04:01:41;;;;;;;5.75;1.90;;;;;;;19.57;67.99;101418.16;5084530;28;20032;-38
2023/11/24 04:04:06;;;;;;;5.15;1.85;;;;;;;19.55;67.93;101415.66;5085327;28;20028;-38
2023/11/24 04:06:32;;;;;;;5.72;1.95;;;;;;;19.56;67.73;101411.00;5084689;28;20537;-38
2023/11/24 04:08:58;;;;;;;5.10;1.92;;;;;;;19.55;68.07;101412.09;5074317;28;20376;-38
2023/11/24 04:11:23;;;;;;;6.72;2.15;;;;;;;19.54;67.84;101407.69;5093400;28;20460;-38
2023/11/24 04:13:48;;;;;;;4.57;1.90;;;;;;;19.53;67.99;101406.03;5088923;28;20028;-38
2023/11/24 04:16:14;;;;;;;3.25;1.70;;;;;;;19.52;67.80;101418.97;5082052;28;20475;-38
2023/11/24 04:18:40;;;;;;;4.88;1.63;;;;;;;19.51;68.08;101427.47;5087109;28;20043;-39
2023/11/24 04:21:06;;;;;;;6.80;1.80;;;;;;;19.50;67.76;101426.66;5083217;28;20020;-38
2023/11/24 04:23:31;;;;;;;6.53;2.28;;;;;;;19.49;68.04;101422.25;5079858;28;20031;-38
2023/11/24 04:25:57;;;;;;;5.43;2.05;;;;;;;19.49;67.92;101410.44;5075698;28;20047;-38
2023/11/24 04:28:22;;;;;;;4.68;1.90;;;;;;;19.48;67.92;101404.09;5083431;28;20034;-38
2023/11/24 04:30:48;;;;;;;4.00;1.90;;;;;;;19.48;67.75;101401.34;5076866;28;20464;-38
2023/11/24 04:33:13;;;;;;;5.80;2.20;;;;;;;19.48;67.59;101397.78;5083350;28;20059;-38
2023/11/24 04:35:39;;;;;;;7.45;1.77;;;;;;;19.45;67.65;101393.69;5080733;28;20324;-38
2023/11/24 04:38:05;;;;;;;6.13;2.05;;;;;;;19.45;67.63;101395.56;5076444;28;20039;-38
2023/11/24 04:40:30;;;;;;;5.05;1.88;;;;;;;19.45;67.62;101409.31;5084605;28;20407;-38
2023/11/24 04:42:56;;;;;;;4.45;1.60;;;;;;;19.43;67.58;101397.78;5113814;27;20032;-38
2023/11/24 04:45:21;;;;;;;6.45;1.83;;;;;;;19.42;67.69;101393.41;5086660;28;20022;-38
2023/11/24 04:47:47;;;;;;;4.32;1.80;;;;;;;19.42;67.70;101398.88;5090589;28;20114;-38
2023/11/24 04:50:12;;;;;;;6.07;2.03;;;;;;;19.42;67.53;101396.16;5083240;28;20023;-38
2023/11/24 04:52:37;;;;;;;7.97;2.17;;;;;;;19.41;67.48;101400.78;5093816;28;20100;-38
2023/11/24 04:55:06;;;;;;;4.80;1.92;;;;;;;19.40;67.25;101394.47;5083005;28;20458;-38
2023/11/24 04:57:33;;;;;;;6.43;2.00;;;;;;;19.41;67.35;101384.31;5085624;28;20101;-38
2023/11/24 04:59:59;;;;;;;6.05;1.92;;;;;;;19.38;67.18;101382.94;5085602;28;20069;-38
2023/11/24 05:02:24;;;;;;;4.95;2.05;;;;;;;19.38;67.57;101385.69;5076222;28;20020;-38
2023/11/24 05:04:50;;;;;;;4.82;1.75;;;;;;;19.38;67.49;101396.66;5082708;28;20757;-38
2023/11/24 05:07:18;;;;;;;6.22;1.90;;;;;;;19.37;67.55;101403.28;5084053;28;20986;-39
2023/11/24 05:09:44;;;;;;;3.90;1.70;;;;;;;19.35;67.63;101424.72;5084374;28;20292;-38
2023/11/24 05:12:10;;;;;;;5.30;1.80;;;;;;;19.35;67.55;101404.63;5083323;28;20032;-38
2023/11/24 05:14:35;;;;;;;7.07;2.15;;;;;;;19.34;67.50;101389.28;5080860;28;20538;-38
2023/11/24 05:17:00;;;;;;;7.47;2.10;;;;;;;19.34;67.32;101367.28;5079797;28;20030;-38
2023/11/24 05:19:26;;;;;;;5.68;1.80;;;;;;;19.34;67.50;101378.28;5081293;28;20032;-38
2023/11/24 05:21:51;;;;;;;4.80;1.80;;;;;;;19.34;67.47;101372.78;5080041;28;20090;-38
2023/11/24 05:24:17;;;;;;;6.57;1.90;;;;;;;19.32;67.55;101362.03;5077175;28;20109;-38
2023/11/24 05:26:42;;;;;;;6.40;2.08;;;;;;;19.33;67.39;101371.94;5085842;28;20495;-37
2023/11/24 05:29:08;;;;;;;8.57;2.08;;;;;;;19.37;67.79;101378.56;5079893;28;20231;-38
2023/11/24 05:31:34;;;;;;;8.60;2.20;;;;;;;19.42;68.03;101363.97;5083427;28;20016;-38
2023/11/24 05:33:59;;;;;;;5.00;2.08;;;;;;;19.47;68.09;101364.00;5085940;28;20023;-37
2023/11/24 05:36:26;;;;;;;7.15;2.00;;;;;;;19.52;67.92;101355.75;5088050;28;20483;-38
2023/11/24 05:38:56;;;;;;;5.78;2.10;;;;;;;19.58;67.95;101361.25;5074596;28;20024;-36
2023/11/24 05:41:21;;;;;;;5.97;2.05;;;;;;;19.62;67.79;101373.31;5082889;28;20063;-37
2023/11/24 05:43:47;;;;;;;4.40;1.88;;;;;;;19.65;67.90;101364.53;5082417;28;20180;-39
2023/11/24 05:46:13;;;;;;;5.30;1.85;;;;;;;19.67;67.58;101374.16;5083481;28;20076;-39
2023/11/24 05:48:38;;;;;;;6.70;2.10;;;;;;;19.71;67.40;101367.00;5083724;28;20535;-38
2023/11/24 05:51:04;;;;;;;6.32;1.95;;;;;;;19.75;67.24;101371.97;5080988;28;20028;-36
2023/11/24 05:53:29;;;;;;;6.95;2.10;;;;;;;19.78;66.88;101368.66;5084802;28;20027;-36
2023/11/24 05:55:55;;;;;;;5.32;2.00;;;;;;;19.80;66.46;101358.19;5074914;28;20047;-39
2023/11/24 05:58:21;;;;;;;5.90;2.05;;;;;;;19.82;66.34;101362.31;5081839;28;20031;-36
2023/11/24 06:00:48;;;;;;;6.53;1.98;;;;;;;19.86;66.12;101351.63;5080581;28;20486;-36
2023/11/24 06:03:13;;;;;;;5.20;1.80;;;;;;;19.88;66.03;101364.00;5075463;28;20039;-39
2023/11/24 06:05:39;;;;;;;6.15;1.92;;;;;;;19.87;66.04;101348.59;5075852;28;20055;-38
2023/11/24 06:08:04;;;;;;;8.90;2.45;;;;;;;19.89;65.96;101348.31;5078470;28;20056;-37
2023/11/24 06:10:30;;;;;;;5.25;2.03;;;;;;;19.90;65.59;101366.47;5080107;28;20055;-36
2023/11/24 06:12:56;;;;;;;6.93;2.00;;;;;;;19.90;65.50;101360.97;5080626;28;20031;-38
2023/11/24 06:15:22;;;;;;;8.68;2.20;;;;;;;19.90;65.25;101363.72;5092832;28;20036;-38
2023/11/24 06:17:48;;;;;;;5.28;1.80;;;;;;;19.91;65.07;101359.06;5079811;28;20028;-37
2023/11/24 06:20:14;;;;;;;10.75;1.98;;;;;;;19.92;65.32;101355.19;5111470;27;20034;-37
2023/11/24 06:22:39;;;;;;;15.98;2.20;;;;;;;19.90;64.83;101346.38;5095482;28;20065;-37
2023/11/24 06:25:05;;;;;;;14.95;2.10;;;;;;;19.90;63.87;101338.94;5095597;28;20434;-37
2023/11/24 06:27:31;;;;;;;7.82;2.08;;;;;;;19.93;63.78;101330.16;5096724;28;20135;-36
2023/11/24 06:29:56;;;;;;;4.13;1.77;;;;;;;19.95;63.67;101319.72;5094535;28;20423;-36
2023/11/24 06:32:21;;;;;;;7.80;2.00;;;;;;;20.01;63.59;101340.59;5093185;28;20055;-36
2023/11/24 06:34:47;;;;;;;7.57;1.98;;;;;;;20.08;63.54;101343.03;5086093;28;20389;-36
2023/11/24 06:37:13;;;;;;;8.38;2.08;;;;;;;20.15;63.03;101348.28;5086789;28;20036;-36
2023/11/24 06:39:38;;;;;;;7.10;2.10;;;;;;;20.20;62.94;101351.00;5083419;28;20086;-36
2023/11/24 06:42:04;;;;;;;7.43;2.25;;;;;;;20.27;63.07;101346.03;5080625;28;20031;-36
2023/11/24 06:44:30;;;;;;;6.25;2.00;;;;;;;20.33;62.96;101361.44;5083110;28;20104;-37
2023/11/24 06:46:55;;;;;;;6.35;2.15;;;;;;;20.41;62.71;101375.72;5111495;27;20103;-37
2023/11/24 06:49:21;;;;;;;5.00;1.92;;;;;;;20.47;62.45;101394.69;5081513;28;20020;-37
2023/11/24 06:51:48;;;;;;;6.80;2.22;;;;;;;20.53;62.31;101387.25;5088694;28;20030;-37
2023/11/24 06:54:14;;;;;;;6.70;2.17;;;;;;;20.60;62.10;101385.00;5084839;28;20468;-37
2023/11/24 06:56:39;;;;;;;6.78;1.90;;;;;;;20.68;62.14;101383.59;5084208;28;20050;-37
2023/11/24 06:59:05;;;;;;;4.07;1.77;;;;;;;20.75;62.04;101397.94;5081572;28;20286;-36
2023/11/24 07:01:31;;;;;;;8.88;2.22;;;;;;;20.81;61.83;101390.47;5083526;28;20146;-36
2023/11/24 07:04:00;;;;;;;4.28;1.70;;;;;;;20.89;61.84;101391.81;5083394;28;20469;-36
2023/11/24 07:06:26;;;;;;;9.60;2.20;;;;;;;20.93;61.67;101401.13;5078428;28;20024;-37
2023/11/24 07:08:52;;;;;;;6.38;2.00;;;;;;;20.98;61.67;101387.31;5085489;28;20495;-37
2023/11/24 07:11:19;;;;;;;5.30;1.90;;;;;;;21.05;61.56;101384.28;5078060;28;20016;-37
2023/11/24 07:13:44;;;;;;;7.85;2.20;;;;;;;21.10;61.56;101357.53;5089503;28;20481;-37
2023/11/24 07:16:09;;;;;;;7.00;1.88;;;;;;;21.16;61.36;101358.28;5094085;28;20031;-37
2023/11/24 07:18:35;;;;;;;6.10;2.13;;;;;;;21.22;61.80;101353.56;5094443;28;20018;-37
2023/11/24 07:21:00;;;;;;;5.90;2.00;;;;;;;21.24;61.50;101352.19;5089123;28;20208;-37
2023/11/24 07:23:25;;;;;;;5.55;2.00;;;;;;;21.30;61.73;101347.47;5081738;28;20069;-37
2023/11/24 07:25:51;;;;;;;3.92;1.98;;;;;;;21.35;61.38;101330.03;5081027;28;20027;-37
2023/11/24 07:28:17;;;;;;;6.07;2.05;;;;;;;21.38;61.57;101329.47;5085845;28;20031;-37
2023/11/24 07:30:42;;;;;;;3.63;1.63;;;;;;;21.39;61.61;101331.94;5080036;28;20017;-37
2023/11/24 07:33:08;;;;;;;5.25;1.75;;;;;;;21.39;61.13;101353.19;5084024;28;20049;-36
2023/11/24 07:35:33;;;;;;;4.30;2.00;;;;;;;21.38;61.21;101388.19;5078415;28;20123;-37
2023/11/24 07:37:58;;;;;;;7.03;2.08;;;;;;;21.36;61.22;101389.59;5080514;28;20495;-37
2023/11/24 07:40:25;;;;;;;4.32;1.83;;;;;;;21.33;61.35;101366.16;5093093;28;20035;-39
2023/11/24 07:42:51;;;;;;;5.30;2.00;;;;;;;21.30;61.11;101399.84;5075648;28;20086;-37
2023/11/24 07:45:16;;;;;;;6.65;2.10;;;;;;;21.26;61.18;101372.03;5097832;28;20137;-36
2023/11/24 07:47:42;;;;;;;7.05;2.00;;;;;;;21.24;61.32;101387.16;5087756;28;20111;-36
2023/11/24 07:50:08;;;;;;;5.78;1.88;;;;;;;21.20;60.95;101364.91;5086194;28;20119;-37
2023/11/24 07:52:34;;;;;;;5.78;1.73;;;;;;;21.17;61.22;101370.97;5086555;28;20059;-37
2023/11/24 07:54:59;;;;;;;3.70;1.58;;;;;;;21.13;61.30;101362.44;5081817;28;20468;-37
2023/11/24 07:57:26;;;;;;;7.18;1.98;;;;;;;21.11;61.15;101352.81;5092095;28;20031;-37
2023/11/24 07:59:52;;;;;;;5.03;2.00;;;;;;;21.10;61.24;101345.66;5078888;28;20026;-36
2023/11/24 08:02:18;;;;;;;3.60;1.98;;;;;;;21.07;61.27;101352.56;5099236;28;20038;-37
2023/11/24 08:04:43;;;;;;;7.97;1.88;;;;;;;21.06;61.39;101374.91;5080058;28;20020;-36
2023/11/24 08:07:09;;;;;;;5.18;1.95;;;;;;;21.04;61.46;101369.69;5075101;28;20441;-36
2023/11/24 08:09:36;;;;;;;8.25;1.83;;;;;;;21.03;61.01;101326.69;5083898;28;20531;-36
2023/11/24 08:12:04;;;;;;;6.40;1.90;;;;;;;21.00;61.23;101341.88;5083284;28;20027;-36
2023/11/24 08:14:30;;;;;;;4.68;1.52;;;;;;;20.99;61.54;101354.00;5083681;28;20032;-36
2023/11/24 08:16:55;;;;;;;4.28;1.75;;;;;;;20.97;61.10;101385.72;5082403;28;20055;-37
2023/11/24 08:19:25;;;;;;;5.47;1.88;;;;;;;20.95;61.36;101368.63;5090115;28;20411;-37
2023/11/24 08:21:51;;;;;;;6.47;1.70;;;;;;;20.92;61.44;101369.19;5093702;28;20027;-37
2023/11/24 08:24:16;;;;;;;4.85;2.10;;;;;;;20.88;61.02;101357.91;5081126;28;20130;-37
2023/11/24 08:26:42;;;;;;;5.30;1.85;;;;;;;20.85;61.28;101344.72;5078456;28;20029;-36
2023/11/24 08:29:07;;;;;;;5.22;1.88;;;;;;;20.79;61.29;101318.31;5087251;28;20058;-36
2023/11/24 08:31:32;;;;;;;4.85;1.65;;;;;;;20.75;60.94;101333.75;5084224;28;20035;-37
2023/11/24 08:33:59;;;;;;;7.90;1.70;;;;;;;20.69;61.17;101322.72;5085933;28;20036;-37
2023/11/24 08:36:25;;;;;;;5.97;2.00;;;;;;;20.65;61.19;101320.84;5076701;28;20438;-37
2023/11/24 08:38:51;;;;;;;7.05;1.70;;;;;;;20.61;61.29;101320.56;5075667;28;20174;-37
2023/11/24 08:41:17;;;;;;;5.72;1.55;;;;;;;20.56;61.09;101330.78;5078317;28;20381;-37
2023/11/24 08:43:44;;;;;;;3.20;1.48;;;;;;;20.52;61.37;101325.81;5081232;28;20038;-37
2023/11/24 08:46:10;;;;;;;3.80;1.50;;;;;;;20.49;61.34;101345.69;5077959;28;20052;-36
2023/11/24 08:48:37;;;;;;;5.80;1.75;;;;;;;20.46;61.14;101329.72;5084834;28;20055;-37
2023/11/24 08:51:03;;;;;;;5.50;1.70;;;;;;;20.43;61.06;101321.19;5084147;28;20032;-36
2023/11/24 08:53:29;;;;;;;5.43;1.75;;;;;;;20.40;60.86;101314.31;5081391;28;20649;-37
2023/11/24 08:55:54;;;;;;;5.70;2.00;;;;;;;20.39;60.48;101336.63;5083104;28;20048;-37
2023/11/24 08:58:21;;;;;;;9.32;2.28;;;;;;;20.38;59.76;101319.31;5082531;28;20048;-36
2023/11/24 09:00:47;;;;;;;5.75;1.90;;;;;;;20.36;59.99;101314.06;5080725;28;20549;-36
2023/11/24 09:03:12;;;;;;;5.72;2.00;;;;;;;20.35;59.63;101315.19;5084611;28;20023;-37
2023/11/24 09:05:38;;;;;;;6.60;1.80;;;;;;;20.34;59.71;101312.69;5080158;28;20027;-37
2023/11/24 09:08:05;;;;;;;5.15;1.95;;;;;;;20.32;59.61;101301.97;5072912;28;20111;-37
2023/11/24 09:10:30;;;;;;;6.60;2.47;;;;;;;20.29;59.70;101320.97;5086069;28;20028;-36
2023/11/24 09:12:57;;;;;;;5.70;2.13;;;;;;;20.27;59.62;101298.41;5087998;28;20422;-36
2023/11/24 09:15:23;;;;;;;7.80;1.83;;;;;;;20.25;59.41;101311.66;5089416;28;20081;-37
2023/11/24 09:17:48;;;;;;;8.07;2.15;;;;;;;20.23;59.15;101319.34;5083439;28;20032;-37
2023/11/24 09:20:16;;;;;;;8.48;1.90;;;;;;;20.22;59.01;101312.19;5085112;28;20038;-36
2023/11/24 09:22:42;;;;;;;7.93;2.10;;;;;;;20.18;58.90;101318.28;5084707;28;20034;-37
2023/11/24 09:25:08;;;;;;;7.15;2.15;;;;;;;20.17;59.03;101311.13;5093760;28;20019;-37
2023/11/24 09:27:34;;;;;;;7.53;2.22;;;;;;;20.16;58.47;101319.66;5086846;28;20031;-37
2023/11/24 09:30:01;;;;;;;7.57;2.08;;;;;;;20.14;58.64;101328.16;5078270;28;20028;-36
2023/11/24 09:32:27;;;;;;;6.82;2.10;;;;;;;20.14;58.67;101313.59;5092029;28;20365;-36
2023/11/24 09:34:52;;;;;;;7.88;2.33;;;;;;;20.12;57.97;101315.81;5078466;28;20031;-36
2023/11/24 09:37:17;;;;;;;7.60;1.98;;;;;;;20.11;58.30;101311.41;5090983;28;20055;-36
2023/11/24 09:39:43;;;;;;;7.70;2.35;;;;;;;20.09;58.25;101308.13;5083951;28;20097;-36
2023/11/24 09:42:09;;;;;;;8.65;2.05;;;;;;;20.09;58.33;101305.38;5075684;28;20401;-36
2023/11/24 09:44:35;;;;;;;7.13;2.10;;;;;;;20.08;58.47;101310.03;5089618;28;20036;-36
2023/11/24 09:47:02;;;;;;;9.20;2.20;;;;;;;20.08;58.56;101309.22;5103265;28;20387;-36
2023/11/24 09:49:28;;;;;;;5.40;1.98;;;;;;;20.07;58.15;101299.31;5086202;28;20032;-36
2023/11/24 09:51:53;;;;;;;7.25;2.50;;;;;;;20.08;58.57;101317.47;5092226;28;20421;-36
2023/11/24 09:54:20;;;;;;;7.20;2.10;;;;;;;20.07;58.46;101307.56;5088347;28;20674;-36
2023/11/24 09:56:46;;;;;;;8.32;2.20;;;;;;;20.07;58.34;101308.38;5088219;28;20039;-36
2023/11/24 09:59:13;;;;;;;10.73;2.35;;;;;;;20.07;58.59;101297.38;5083195;28;20036;-36
2023/11/24 10:01:39;;;;;;;7.18;2.35;;;;;;;20.08;58.16;101293.53;5088265;28;20028;-36
2023/11/24 10:04:05;;;;;;;8.13;2.42;;;;;;;20.09;58.56;101295.16;5094544;27;20292;-36
2023/11/24 10:06:34;;;;;;;6.75;2.03;;;;;;;20.10;58.07;101307.84;5089160;28;20136;-36
2023/11/24 10:08:59;;;;;;;7.70;2.28;;;;;;;20.11;58.09;101325.16;5078945;28;20103;-36
2023/11/24 10:11:28;;;;;;;8.80;2.42;;;;;;;20.11;58.17;101306.72;5080749;28;20548;-36
2023/11/24 10:13:54;;;;;;;7.80;2.55;;;;;;;20.11;57.70;101339.75;5087078;28;20050;-37
2023/11/24 10:16:22;;;;;;;9.18;2.60;;;;;;;20.11;57.68;101339.75;5099062;28;20027;-36
2023/11/24 10:18:47;;;;;;;7.50;2.35;;;;;;;20.10;57.62;101321.59;5086692;28;20074;-36
2023/11/24 10:21:13;;;;;;;7.38;2.40;;;;;;;20.09;57.47;101308.94;5083984;28;20341;-36
2023/11/24 10:23:39;;;;;;;10.43;2.40;;;;;;;20.08;56.90;101301.78;5082134;28;20480;-37
2023/11/24 10:26:18;;;;;;;9.77;2.17;;;;;;;20.10;57.03;101299.56;5092326;28;20464;-37
2023/11/24 10:28:47;;;;;;;9.35;2.38;;;;;;;20.11;56.68;101290.22;5085869;28;20024;-36
2023/11/24 10:31:13;;;;;;;8.63;2.42;;;;;;;20.12;57.11;101288.28;5091615;28;20028;-36
2023/11/24 10:33:40;;;;;;;5.90;2.10;;;;;;;20.16;57.09;101311.41;5092332;28;20027;-36
2023/11/24 10:36:06;;;;;;;8.43;2.45;;;;;;;20.16;57.13;101305.91;5089960;28;20024;-36
2023/11/24 10:38:32;;;;;;;9.32;2.05;;;;;;;20.18;56.27;101289.91;5072445;28;20446;-36
2023/11/24 10:41:00;;;;;;;7.93;2.20;;;;;;;20.20;56.41;101287.72;5086602;28;20024;-36
2023/11/24 10:43:31;;;;;;;7.10;2.15;;;;;;;20.22;56.32;101282.75;5090605;28;20028;-36
2023/11/24 10:45:58;;;;;;;6.75;2.53;;;;;;;20.25;56.15;101292.38;5081424;28;20538;-36
2023/11/24 10:48:32;;;;;;;7.03;2.55;;;;;;;20.25;56.25;101279.44;5095665;28;20024;-36
2023/11/24 10:51:20;;;;;;;9.38;2.33;;;;;;;20.26;56.06;101266.50;5093656;28;20480;-36
2023/11/24 10:53:49;;;;;;;7.28;1.98;;;;;;;20.26;56.08;101264.56;5086165;28;20032;-36
2023/11/24 10:56:20;;;;;;;6.95;2.30;;;;;;;20.26;55.98;101274.75;5083528;28;20516;-37
2023/11/24 10:58:54;;;;;;;7.05;2.20;;;;;;;20.24;56.04;101258.50;5083248;28;20369;-37
2023/11/24 11:01:24;;;;;;;6.75;2.03;;;;;;;20.25;55.87;101253.84;5084570;28;20028;-37
2023/11/24 11:03:52;;;;;;;7.63;2.30;;;;;;;20.25;56.06;101248.34;5102398;27;20665;-37
2023/11/24 11:06:20;;;;;;;6.82;2.00;;;;;;;20.24;56.32;101242.00;5065670;28;20024;-37
2023/11/24 11:09:00;;;;;;;9.88;2.22;;;;;;;20.23;55.76;101243.09;5080969;28;20024;-37
2023/11/24 11:11:51;;;;;;;6.65;2.15;;;;;;;20.22;56.25;101268.16;5080962;28;20493;-37
2023/11/24 11:14:18;;;;;;;6.82;2.00;;;;;;;20.19;56.39;101242.84;5080415;28;20028;-37
2023/11/24 11:16:44;;;;;;;5.30;1.92;;;;;;;20.18;56.05;101227.47;5090737;28;20036;-36
2023/11/24 11:20:02;;;;;;;6.78;2.28;;;;;;;20.17;56.28;101227.72;5085913;28;20016;-36